Time;durP1;ratioP1;P1;durP2;ratioP2;P2;SDS_P1;SDS_P2;PMS_P1;PMS_P2;Temp;Humidity;BMP_temperature;BMP_pressure;BME280_temperature;BME280_humidity;BME280_pressure;Samples;Min_cycle;Max_cycle;Signal;HPM_P1;HPM_P2
2023/09/20 00:00:36;;;;;;;7.00;1.65;;;20.80;49.80;;;;;;4962722;28;20047;-58
2023/09/20 00:03:04;;;;;;;6.25;1.45;;;20.70;49.80;;;;;;4961381;28;20391;-58
2023/09/20 00:05:33;;;;;;;2.97;1.30;;;20.80;49.90;;;;;;4960988;28;20050;-57
2023/09/20 00:08:03;;;;;;;5.15;1.67;;;20.70;50.40;;;;;;4960883;28;20066;-57
2023/09/20 00:10:31;;;;;;;5.68;1.50;;;20.70;49.90;;;;;;4963570;28;20050;-57
2023/09/20 00:12:58;;;;;;;2.13;0.95;;;20.70;50.00;;;;;;4961509;28;20058;-57
2023/09/20 00:15:25;;;;;;;4.43;1.30;;;20.70;50.00;;;;;;4962297;28;20164;-57
2023/09/20 00:17:54;;;;;;;5.10;1.50;;;20.70;50.10;;;;;;4962238;28;20054;-57
2023/09/20 00:20:21;;;;;;;3.53;1.38;;;20.70;50.20;;;;;;4960732;28;20046;-56
2023/09/20 00:22:50;;;;;;;4.47;1.17;;;20.70;50.30;;;;;;4961002;28;20061;-57
2023/09/20 00:25:17;;;;;;;3.50;1.30;;;20.70;50.40;;;;;;4961841;28;20553;-58
2023/09/20 00:27:46;;;;;;;2.90;1.40;;;20.70;50.40;;;;;;4960329;28;20059;-57
2023/09/20 00:30:17;;;;;;;3.05;1.05;;;20.70;50.50;;;;;;4955013;28;20073;-57
2023/09/20 00:32:45;;;;;;;2.90;1.30;;;20.60;50.50;;;;;;4960972;28;20062;-50
2023/09/20 00:35:14;;;;;;;3.60;1.15;;;20.60;50.50;;;;;;4960980;28;20484;-56
2023/09/20 00:37:42;;;;;;;3.47;1.33;;;20.60;50.50;;;;;;4961204;28;20066;-50
2023/09/20 00:40:15;;;;;;;3.47;1.10;;;20.60;50.60;;;;;;4961107;28;20057;-51
2023/09/20 00:42:44;;;;;;;2.47;0.98;;;20.60;50.60;;;;;;4961550;28;20058;-52
2023/09/20 00:45:13;;;;;;;3.00;1.20;;;20.60;50.70;;;;;;4958969;28;20053;-49
2023/09/20 00:47:42;;;;;;;2.90;1.30;;;20.60;50.70;;;;;;4962884;28;20062;-52
2023/09/20 00:50:12;;;;;;;2.97;1.13;;;20.60;50.70;;;;;;4961389;28;20061;-49
2023/09/20 00:52:41;;;;;;;4.07;1.48;;;20.50;50.70;;;;;;4961056;28;20047;-50
2023/09/20 00:55:15;;;;;;;4.88;1.33;;;20.50;50.80;;;;;;4961284;28;20411;-48
2023/09/20 00:57:45;;;;;;;5.40;1.30;;;20.50;50.90;;;;;;4960573;28;20403;-47
2023/09/20 01:00:21;;;;;;;4.53;1.30;;;20.50;51.00;;;;;;4959818;28;20054;-57
2023/09/20 01:02:50;;;;;;;3.58;1.33;;;20.50;51.00;;;;;;4983152;23;20041;-48
2023/09/20 01:05:21;;;;;;;3.35;1.20;;;20.40;51.10;;;;;;4941358;28;20043;-46
2023/09/20 01:07:54;;;;;;;3.38;1.35;;;20.40;51.20;;;;;;4941384;28;20062;-44
2023/09/20 01:10:24;;;;;;;4.18;1.40;;;20.40;51.20;;;;;;4942682;28;20510;-49
2023/09/20 01:12:54;;;;;;;4.15;1.10;;;20.40;51.20;;;;;;4941389;28;20055;-48
2023/09/20 01:15:21;;;;;;;4.57;1.25;;;20.30;51.20;;;;;;4940968;28;20062;-49
2023/09/20 01:17:53;;;;;;;3.58;1.73;;;20.40;51.20;;;;;;4942413;28;20055;-45
2023/09/20 01:20:20;;;;;;;3.05;1.20;;;20.30;51.20;;;;;;4943120;28;20415;-46
2023/09/20 01:22:51;;;;;;;5.00;1.05;;;20.30;51.70;;;;;;4940840;28;20059;-43
2023/09/20 01:25:22;;;;;;;5.05;1.52;;;20.20;51.30;;;;;;4942480;28;20054;-46
2023/09/20 01:27:50;;;;;;;4.97;2.08;;;20.20;51.90;;;;;;4941842;28;20515;-44
2023/09/20 01:30:17;;;;;;;5.38;1.35;;;20.20;51.40;;;;;;4939951;28;20063;-48
2023/09/20 01:32:45;;;;;;;4.78;1.42;;;20.20;51.40;;;;;;4941961;28;20059;-46
2023/09/20 01:35:16;;;;;;;5.85;1.50;;;20.20;51.50;;;;;;4940569;28;20070;-48
2023/09/20 01:37:44;;;;;;;2.33;1.10;;;20.10;51.50;;;;;;4940344;28;20054;-45
2023/09/20 01:40:16;;;;;;;2.78;1.20;;;20.10;51.50;;;;;;4941542;28;20059;-43
2023/09/20 01:42:44;;;;;;;3.58;1.40;;;20.10;51.60;;;;;;4941930;28;20404;-46
2023/09/20 01:45:16;;;;;;;3.20;1.33;;;20.10;51.60;;;;;;4939195;28;20396;-47
2023/09/20 01:47:49;;;;;;;4.32;1.30;;;20.00;51.70;;;;;;4942581;28;20074;-47
2023/09/20 01:50:19;;;;;;;2.47;1.13;;;20.10;51.90;;;;;;4941550;28;20051;-46
2023/09/20 01:52:48;;;;;;;2.03;1.15;;;20.00;51.80;;;;;;4941410;28;20414;-46
2023/09/20 01:55:20;;;;;;;3.03;1.17;;;20.00;51.90;;;;;;4941390;28;20051;-44
2023/09/20 01:57:48;;;;;;;5.70;1.58;;;20.00;52.00;;;;;;4941459;28;20055;-44
2023/09/20 02:00:23;;;;;;;3.95;1.67;;;19.90;52.00;;;;;;4941822;28;20507;-45
2023/09/20 02:02:50;;;;;;;;;;;20.00;52.10;;;;;;4943916;28;20046;-51
2023/09/20 02:05:18;;;;;;;3.40;1.50;;;19.90;51.90;;;;;;4962313;28;19922;-45
2023/09/20 02:07:47;;;;;;;3.70;1.63;;;20.00;52.00;;;;;;4964466;28;20051;-48
2023/09/20 02:10:16;;;;;;;2.80;1.40;;;19.90;52.10;;;;;;4963722;28;20057;-45
2023/09/20 02:12:47;;;;;;;3.75;1.70;;;19.90;52.20;;;;;;4964383;28;20061;-42
2023/09/20 02:15:14;;;;;;;3.40;1.52;;;19.80;52.30;;;;;;4963336;28;20505;-48
2023/09/20 02:17:42;;;;;;;2.78;1.58;;;19.80;52.40;;;;;;4964438;28;20054;-45
2023/09/20 02:20:12;;;;;;;7.45;1.50;;;19.80;52.90;;;;;;4964245;28;20059;-43
2023/09/20 02:22:41;;;;;;;4.30;1.30;;;19.80;52.50;;;;;;4964233;28;20062;-44
2023/09/20 02:25:12;;;;;;;3.95;1.42;;;19.80;52.60;;;;;;4963979;28;20406;-51
2023/09/20 02:27:43;;;;;;;4.22;1.30;;;19.70;52.60;;;;;;4963957;28;20047;-43
2023/09/20 02:30:14;;;;;;;3.15;1.20;;;19.70;52.70;;;;;;4962620;28;20054;-45
2023/09/20 02:32:42;;;;;;;2.47;1.35;;;19.70;52.70;;;;;;4963775;28;20061;-46
2023/09/20 02:35:10;;;;;;;3.50;1.70;;;19.70;52.80;;;;;;4963616;28;20054;-46
2023/09/20 02:37:38;;;;;;;3.95;1.50;;;19.70;52.80;;;;;;4963695;28;20055;-43
2023/09/20 02:40:13;;;;;;;2.75;1.30;;;19.70;52.90;;;;;;4964907;28;20053;-43
2023/09/20 02:42:43;;;;;;;9.25;1.55;;;19.70;52.90;;;;;;4961049;28;20043;-44
2023/09/20 02:45:12;;;;;;;2.63;1.23;;;19.70;53.00;;;;;;4962934;28;20082;-43
2023/09/20 02:47:40;;;;;;;5.25;1.75;;;19.60;53.00;;;;;;4964438;28;20606;-42
2023/09/20 02:50:11;;;;;;;5.15;2.00;;;19.60;53.10;;;;;;4964420;28;20054;-45
2023/09/20 02:52:40;;;;;;;4.72;1.90;;;19.60;53.20;;;;;;4963509;28;20490;-45
2023/09/20 02:55:09;;;;;;;3.38;1.40;;;19.60;53.20;;;;;;4962960;28;20516;-50
2023/09/20 02:57:37;;;;;;;8.02;1.30;;;19.60;53.20;;;;;;4963693;28;20414;-44
2023/09/20 03:00:15;;;;;;;4.30;1.70;;;19.60;53.30;;;;;;4962562;28;20066;-44
2023/09/20 03:02:45;;;;;;;5.65;1.40;;;19.60;53.40;;;;;;4963445;28;20066;-44
2023/09/20 03:05:16;;;;;;;4.18;1.42;;;19.60;53.40;;;;;;4962780;28;20058;-43
2023/09/20 03:07:44;;;;;;;6.40;2.05;;;19.60;53.50;;;;;;4963020;28;20057;-44
2023/09/20 03:10:13;;;;;;;3.42;1.33;;;19.60;53.50;;;;;;4964217;28;20546;-45
2023/09/20 03:12:44;;;;;;;2.88;1.30;;;19.60;53.60;;;;;;4961795;28;20067;-44
2023/09/20 03:15:17;;;;;;;2.47;1.08;;;19.50;53.60;;;;;;4962286;28;20069;-45
2023/09/20 03:17:44;;;;;;;3.30;1.40;;;19.50;53.70;;;;;;4944092;28;20061;-44
2023/09/20 03:20:16;;;;;;;2.53;1.13;;;19.50;53.70;;;;;;4963110;28;20414;-45
2023/09/20 03:22:43;;;;;;;4.40;1.40;;;19.50;53.80;;;;;;4962847;28;20054;-57
2023/09/20 03:25:13;;;;;;;3.92;1.20;;;19.50;53.90;;;;;;4963405;28;20508;-52
2023/09/20 03:27:42;;;;;;;3.50;1.30;;;19.50;53.90;;;;;;4962672;28;20043;-45
2023/09/20 03:30:13;;;;;;;2.13;1.00;;;19.50;54.00;;;;;;4960905;28;20058;-48
2023/09/20 03:32:43;;;;;;;4.03;1.55;;;19.50;54.00;;;;;;4945240;28;20055;-47
2023/09/20 03:35:11;;;;;;;3.53;1.05;;;19.50;54.10;;;;;;4944539;28;20046;-50
2023/09/20 03:37:39;;;;;;;4.15;1.20;;;19.50;54.10;;;;;;4963439;28;20058;-47
2023/09/20 03:40:10;;;;;;;1.88;1.25;;;19.50;54.10;;;;;;4963352;28;20066;-46
2023/09/20 03:42:40;;;;;;;3.70;1.30;;;19.50;54.10;;;;;;4961375;28;20047;-52
2023/09/20 03:45:09;;;;;;;3.13;1.08;;;19.50;54.10;;;;;;4960207;28;20055;-45
2023/09/20 03:47:36;;;;;;;4.38;1.20;;;19.50;54.20;;;;;;4963135;28;20487;-46
2023/09/20 03:50:06;;;;;;;5.15;1.60;;;19.50;54.30;;;;;;4963301;28;20063;-52
2023/09/20 03:52:33;;;;;;;2.00;1.42;;;19.50;54.30;;;;;;4962023;28;20054;-48
2023/09/20 03:55:02;;;;;;;2.10;1.30;;;19.50;54.30;;;;;;4961401;28;20059;-47
2023/09/20 03:57:29;;;;;;;4.38;1.58;;;19.50;54.40;;;;;;4963953;28;20043;-46
2023/09/20 03:59:57;;;;;;;2.85;1.20;;;19.50;54.50;;;;;;4960688;28;20054;-54
2023/09/20 04:02:25;;;;;;;3.17;1.30;;;19.50;54.50;;;;;;4960772;28;20499;-48
2023/09/20 04:04:53;;;;;;;4.68;1.33;;;19.50;54.60;;;;;;4962684;28;20055;-49
2023/09/20 04:07:23;;;;;;;4.15;1.27;;;19.40;55.00;;;;;;4961032;28;20051;-46
2023/09/20 04:09:50;;;;;;;2.38;1.23;;;19.50;54.60;;;;;;4963066;28;20067;-45
2023/09/20 04:12:18;;;;;;;3.47;1.40;;;19.50;54.60;;;;;;4962415;28;20055;-50
2023/09/20 04:14:45;;;;;;;2.67;1.40;;;19.50;54.70;;;;;;4961373;28;20538;-51
2023/09/20 04:17:12;;;;;;;5.15;1.50;;;19.50;54.70;;;;;;4958600;28;20059;-47
2023/09/20 04:19:42;;;;;;;2.42;1.20;;;19.40;54.70;;;;;;4960663;28;20498;-46
2023/09/20 04:22:10;;;;;;;2.95;1.42;;;19.40;54.70;;;;;;4960676;28;20077;-47
2023/09/20 04:24:38;;;;;;;2.28;1.08;;;19.40;54.80;;;;;;4959835;28;20050;-45
2023/09/20 04:27:08;;;;;;;1.52;1.20;;;19.40;54.80;;;;;;4961507;28;20054;-47
2023/09/20 04:29:36;;;;;;;5.97;1.70;;;19.40;54.80;;;;;;4959974;28;20054;-46
2023/09/20 04:32:04;;;;;;;3.20;1.58;;;19.40;54.80;;;;;;4960816;28;20062;-45
2023/09/20 04:34:31;;;;;;;3.67;1.40;;;19.40;54.90;;;;;;4962744;28;20055;-46
2023/09/20 04:36:59;;;;;;;2.55;1.60;;;19.40;54.90;;;;;;4960304;28;20051;-45
2023/09/20 04:39:27;;;;;;;5.25;1.33;;;19.40;54.90;;;;;;4945227;28;20054;-48
2023/09/20 04:41:55;;;;;;;2.58;1.40;;;19.40;54.90;;;;;;4962384;28;20066;-47
2023/09/20 04:44:23;;;;;;;3.30;1.40;;;19.40;55.00;;;;;;4961227;28;20415;-46
2023/09/20 04:46:50;;;;;;;2.97;1.25;;;19.40;55.00;;;;;;4959563;28;20077;-45
2023/09/20 04:49:19;;;;;;;3.33;1.20;;;19.40;55.00;;;;;;4962514;28;20517;-46
2023/09/20 04:51:48;;;;;;;3.67;1.33;;;19.40;55.00;;;;;;4961209;28;20058;-51
2023/09/20 04:54:15;;;;;;;3.55;1.42;;;19.40;55.10;;;;;;4960290;28;20058;-45
2023/09/20 04:56:47;;;;;;;3.80;1.35;;;19.40;55.10;;;;;;4961971;28;20054;-47
2023/09/20 04:59:16;;;;;;;2.20;1.38;;;19.30;55.10;;;;;;4960835;28;20066;-49
2023/09/20 05:01:43;;;;;;;2.83;1.38;;;19.40;55.20;;;;;;4961918;28;20066;-51
2023/09/20 05:04:13;;;;;;;3.10;1.55;;;19.30;55.20;;;;;;4961118;28;20510;-49
2023/09/20 05:06:41;;;;;;;2.20;1.02;;;19.30;55.20;;;;;;4962220;28;20087;-48
2023/09/20 05:09:09;;;;;;;3.13;1.40;;;19.30;55.20;;;;;;4960937;28;20057;-51
2023/09/20 05:11:36;;;;;;;5.57;1.48;;;19.30;55.20;;;;;;4961291;28;20518;-51
2023/09/20 05:14:05;;;;;;;2.30;1.30;;;19.30;55.20;;;;;;4959443;28;20050;-49
2023/09/20 05:16:34;;;;;;;2.97;1.40;;;19.30;55.30;;;;;;4960065;28;20054;-47
2023/09/20 05:19:01;;;;;;;4.30;1.30;;;19.30;55.30;;;;;;4959937;28;20047;-47
2023/09/20 05:21:28;;;;;;;4.03;1.85;;;19.30;55.30;;;;;;4960356;28;20058;-50
2023/09/20 05:23:57;;;;;;;6.30;1.40;;;19.30;55.40;;;;;;4960489;28;20418;-52
2023/09/20 05:26:24;;;;;;;3.40;1.17;;;19.30;55.40;;;;;;4961062;28;20121;-52
2023/09/20 05:28:51;;;;;;;3.17;1.40;;;19.30;55.50;;;;;;4960106;28;20057;-52
2023/09/20 05:31:19;;;;;;;2.97;1.30;;;19.30;55.50;;;;;;4959508;28;20054;-51
2023/09/20 05:33:48;;;;;;;3.08;1.13;;;19.30;55.50;;;;;;4959187;28;20058;-48
2023/09/20 05:36:16;;;;;;;3.40;1.30;;;19.30;55.60;;;;;;4958595;28;20059;-47
2023/09/20 05:38:43;;;;;;;3.70;1.10;;;19.30;55.60;;;;;;4958732;28;20058;-50
2023/09/20 05:41:10;;;;;;;2.65;1.02;;;19.30;55.60;;;;;;4960455;28;20051;-51
2023/09/20 05:43:39;;;;;;;2.97;1.60;;;19.30;55.60;;;;;;4960497;28;20419;-45
2023/09/20 05:46:07;;;;;;;3.40;1.23;;;19.30;55.60;;;;;;4957326;28;20062;-43
2023/09/20 05:48:34;;;;;;;2.33;1.40;;;19.30;55.70;;;;;;4960513;28;20054;-44
2023/09/20 05:51:03;;;;;;;3.83;1.27;;;19.30;55.70;;;;;;4961669;28;20051;-47
2023/09/20 05:53:32;;;;;;;3.35;1.48;;;19.30;55.70;;;;;;4959967;28;20081;-42
2023/09/20 05:56:06;;;;;;;5.68;1.40;;;19.30;55.70;;;;;;4960569;28;20051;-53
2023/09/20 05:58:34;;;;;;;2.88;1.40;;;19.40;55.80;;;;;;4961945;28;20051;-42
2023/09/20 06:01:01;;;;;;;2.30;1.10;;;19.40;55.70;;;;;;4961488;28;20510;-43
2023/09/20 06:03:29;;;;;;;3.85;1.25;;;19.40;55.80;;;;;;4961819;28;20081;-42
2023/09/20 06:05:57;;;;;;;4.35;1.55;;;19.40;55.80;;;;;;4961996;28;20050;-49
2023/09/20 06:08:25;;;;;;;2.85;1.67;;;19.40;55.80;;;;;;4962238;28;20043;-43
2023/09/20 06:10:53;;;;;;;3.67;1.48;;;19.40;55.80;;;;;;4958923;28;20503;-48
2023/09/20 06:13:21;;;;;;;5.05;1.70;;;19.40;56.30;;;;;;4962483;28;20051;-51
2023/09/20 06:15:48;;;;;;;4.35;1.50;;;19.50;55.90;;;;;;4961823;28;20066;-45
2023/09/20 06:18:17;;;;;;;1.83;1.10;;;19.50;55.90;;;;;;4961219;28;20486;-43
2023/09/20 06:20:50;;;;;;;2.58;1.17;;;19.50;55.90;;;;;;4959741;28;20517;-43
2023/09/20 06:23:18;;;;;;;2.22;1.13;;;19.50;55.90;;;;;;4961799;28;20054;-49
2023/09/20 06:25:47;;;;;;;6.00;1.40;;;19.50;55.90;;;;;;4962275;28;20426;-46
2023/09/20 06:28:15;;;;;;;1.80;1.40;;;19.50;56.00;;;;;;4962303;28;20059;-44
2023/09/20 06:30:42;;;;;;;6.82;1.67;;;19.50;56.00;;;;;;4960744;28;20055;-47
2023/09/20 06:33:10;;;;;;;2.35;1.23;;;19.50;56.10;;;;;;4960393;28;20407;-43
2023/09/20 06:35:40;;;;;;;3.22;1.27;;;19.50;56.10;;;;;;4956370;28;20054;-44
2023/09/20 06:38:09;;;;;;;4.55;1.10;;;19.60;56.20;;;;;;4962621;28;20516;-44
2023/09/20 06:40:38;;;;;;;2.53;1.20;;;19.60;56.20;;;;;;4962108;28;20055;-44
2023/09/20 06:43:08;;;;;;;2.95;1.20;;;19.50;56.20;;;;;;4957975;28;20995;-44
2023/09/20 06:45:35;;;;;;;3.30;1.63;;;19.60;56.30;;;;;;4957746;28;20062;-45
2023/09/20 06:48:03;;;;;;;2.60;1.55;;;19.60;56.30;;;;;;4959521;28;20414;-44
2023/09/20 06:50:31;;;;;;;3.95;1.60;;;19.60;56.40;;;;;;4962186;28;20058;-43
2023/09/20 06:52:59;;;;;;;4.32;1.15;;;19.60;56.40;;;;;;4966161;28;20062;-56
2023/09/20 06:55:26;;;;;;;1.70;1.20;;;19.70;56.50;;;;;;4947530;28;20051;-48
2023/09/20 06:57:58;;;;;;;3.97;1.40;;;19.70;56.50;;;;;;4966505;28;20047;-48
2023/09/20 07:00:26;;;;;;;3.35;1.40;;;19.70;56.50;;;;;;4962381;28;20225;-54
2023/09/20 07:02:55;;;;;;;3.08;1.38;;;19.70;56.40;;;;;;4962960;28;20418;-53
2023/09/20 07:05:24;;;;;;;3.35;1.10;;;19.80;56.50;;;;;;4965227;28;20059;-49
2023/09/20 07:07:53;;;;;;;3.97;1.23;;;19.80;56.50;;;;;;4964899;28;20069;-51
2023/09/20 07:10:20;;;;;;;2.67;1.30;;;19.80;56.50;;;;;;4965891;28;20522;-47
2023/09/20 07:12:49;;;;;;;3.45;1.27;;;19.90;56.60;;;;;;4966770;28;20051;-47
2023/09/20 07:15:18;;;;;;;8.48;1.50;;;19.90;56.60;;;;;;4962220;28;20066;-47
2023/09/20 07:17:58;;;;;;;2.00;1.30;;;19.90;56.70;;;;;;4964557;28;20430;-54
2023/09/20 07:20:25;;;;;;;3.20;1.48;;;20.00;56.60;;;;;;4965165;28;20057;-52
2023/09/20 07:22:53;;;;;;;2.60;1.30;;;20.00;56.60;;;;;;4965318;28;20062;-52
2023/09/20 07:25:20;;;;;;;2.53;1.17;;;20.00;56.60;;;;;;4963110;28;20065;-54
2023/09/20 07:27:49;;;;;;;2.55;1.42;;;20.00;56.50;;;;;;4965928;28;20070;-51
2023/09/20 07:30:19;;;;;;;3.88;1.25;;;20.10;56.60;;;;;;4963366;28;20062;-50
2023/09/20 07:32:51;;;;;;;3.72;1.40;;;20.10;56.60;;;;;;4965223;28;20055;-50
2023/09/20 07:35:26;;;;;;;2.42;1.30;;;20.10;56.60;;;;;;4964464;28;20063;-51
2023/09/20 07:37:56;;;;;;;5.47;2.00;;;20.10;56.50;;;;;;4964878;28;20059;-49
2023/09/20 07:40:28;;;;;;;3.72;1.35;;;20.20;56.60;;;;;;4964907;28;20051;-53
2023/09/20 07:42:59;;;;;;;1.63;1.10;;;20.20;56.60;;;;;;4965965;28;20067;-50
2023/09/20 07:45:31;;;;;;;3.53;1.35;;;20.20;56.60;;;;;;4963542;28;20053;-55
2023/09/20 07:48:00;;;;;;;2.55;1.33;;;20.30;56.60;;;;;;4962346;28;20718;-51
2023/09/20 07:50:29;;;;;;;2.60;1.20;;;20.30;56.60;;;;;;4964752;28;20051;-55
2023/09/20 07:52:59;;;;;;;2.45;1.27;;;20.30;56.60;;;;;;4964144;28;20074;-53
2023/09/20 07:55:27;;;;;;;5.43;1.50;;;20.40;56.60;;;;;;4961792;28;20422;-52
2023/09/20 07:57:58;;;;;;;3.22;1.27;;;20.40;56.60;;;;;;4965255;28;20058;-52
2023/09/20 08:00:26;;;;;;;3.17;1.35;;;20.40;56.60;;;;;;4963128;28;20050;-54
2023/09/20 08:02:54;;;;;;;4.88;1.60;;;20.40;56.60;;;;;;4964378;28;20155;-44
2023/09/20 08:05:23;;;;;;;2.88;1.40;;;20.50;56.70;;;;;;4965159;28;20047;-43
2023/09/20 08:07:51;;;;;;;2.58;1.35;;;20.50;56.70;;;;;;4964520;28;20047;-44
2023/09/20 08:10:18;;;;;;;3.80;1.38;;;20.60;56.60;;;;;;4964959;28;20055;-44
2023/09/20 08:12:45;;;;;;;2.13;1.33;;;20.60;56.60;;;;;;4963829;28;20055;-43
2023/09/20 08:15:13;;;;;;;3.47;1.38;;;20.60;56.60;;;;;;4963050;28;20058;-42
2023/09/20 08:20:27;;;;;;;5.35;1.30;;;20.70;56.60;;;;;;4966486;28;20065;-44
2023/09/20 09:01:37;;;;;;;4.50;1.65;;;21.40;56.00;;;;;;4963376;28;20073;-44
2023/09/20 09:04:08;;;;;;;3.20;1.27;;;21.50;55.70;;;;;;4964125;28;20063;-43
2023/09/20 09:06:35;;;;;;;2.67;1.02;;;21.50;55.80;;;;;;4962661;28;20054;-47
2023/09/20 09:09:04;;;;;;;4.00;1.10;;;21.60;55.90;;;;;;4964008;28;20487;-47
2023/09/20 09:11:32;;;;;;;4.53;1.20;;;21.60;55.80;;;;;;4963691;28;20491;-43
2023/09/20 09:14:00;;;;;;;2.65;0.88;;;21.70;55.70;;;;;;4963017;28;20058;-49
2023/09/20 09:16:32;;;;;;;5.80;1.60;;;21.70;55.60;;;;;;4962654;28;20065;-45
2023/09/20 09:18:59;;;;;;;6.20;1.52;;;21.80;55.70;;;;;;4962564;28;20055;-43
2023/09/20 09:21:27;;;;;;;2.97;1.35;;;21.80;55.40;;;;;;4962964;28;20058;-48
2023/09/20 09:23:55;;;;;;;2.90;1.13;;;21.90;55.40;;;;;;4962133;28;20062;-44
2023/09/20 09:26:25;;;;;;;5.07;0.98;;;21.90;55.30;;;;;;4961822;28;20062;-43
2023/09/20 09:28:52;;;;;;;2.35;1.25;;;22.00;55.20;;;;;;4962773;28;20059;-46
2023/09/20 09:31:20;;;;;;;6.15;1.30;;;22.00;55.20;;;;;;4959748;28;20054;-43
2023/09/20 09:33:47;;;;;;;2.25;1.13;;;22.10;55.10;;;;;;4960832;28;20632;-43
2023/09/20 09:36:14;;;;;;;2.47;0.90;;;22.10;54.90;;;;;;4961032;28;20073;-44
2023/09/20 09:38:41;;;;;;;3.40;1.15;;;22.10;54.70;;;;;;4961454;28;20070;-43
2023/09/20 09:41:10;;;;;;;4.85;1.00;;;22.20;54.80;;;;;;4959806;28;20414;-47
2023/09/20 09:43:38;;;;;;;2.13;0.98;;;22.20;54.50;;;;;;4962713;28;20402;-43
2023/09/20 09:46:08;;;;;;;3.60;1.30;;;22.20;54.50;;;;;;4959872;28;20495;-45
2023/09/20 09:48:37;;;;;;;3.30;1.17;;;22.30;54.50;;;;;;4962207;28;20404;-43
2023/09/20 09:51:06;;;;;;;2.78;1.00;;;22.30;54.40;;;;;;4963337;28;20426;-43
2023/09/20 09:53:36;;;;;;;1.75;1.00;;;22.30;54.60;;;;;;4962451;28;20406;-43
2023/09/20 09:56:07;;;;;;;3.45;0.93;;;22.30;54.30;;;;;;4961875;28;20597;-46
2023/09/20 09:58:35;;;;;;;5.50;1.20;;;22.40;54.20;;;;;;4960970;28;20065;-43
2023/09/20 10:01:07;;;;;;;1.60;1.20;;;22.40;54.20;;;;;;4959418;28;20487;-49
2023/09/20 10:03:40;;;;;;;3.53;0.90;;;22.40;54.20;;;;;;4958838;28;20054;-44
2023/09/20 10:06:10;;;;;;;4.22;1.05;;;22.50;54.30;;;;;;4960867;28;20058;-44
2023/09/20 10:08:39;;;;;;;1.50;0.90;;;22.40;54.00;;;;;;4961138;28;20050;-44
2023/09/20 10:11:08;;;;;;;3.10;1.20;;;22.50;54.10;;;;;;4960904;28;20062;-50
2023/09/20 10:13:37;;;;;;;3.67;1.30;;;22.50;54.00;;;;;;4960561;28;20061;-48
2023/09/20 10:16:10;;;;;;;1.73;1.08;;;22.50;54.00;;;;;;4957767;28;20062;-42
2023/09/20 10:18:58;;;;;;;1.05;0.80;;;22.50;53.80;;;;;;4959171;28;20054;-43
2023/09/20 10:21:27;;;;;;;5.43;1.83;;;22.50;53.70;;;;;;4960343;28;20047;-43
2023/09/20 10:23:57;;;;;;;3.70;0.95;;;22.60;53.60;;;;;;4959526;28;20434;-46
2023/09/20 10:26:26;;;;;;;6.82;1.45;;;22.50;53.50;;;;;;4958113;28;20042;-44
2023/09/20 10:28:58;;;;;;;2.53;1.10;;;22.60;53.60;;;;;;4964554;28;20063;-43
2023/09/20 10:31:29;;;;;;;1.83;1.02;;;22.50;53.70;;;;;;4964106;28;20502;-45
2023/09/20 10:33:56;;;;;;;2.47;1.02;;;22.60;53.70;;;;;;4963218;28;20050;-44
2023/09/20 10:36:25;;;;;;;1.52;0.88;;;22.60;53.70;;;;;;4964806;28;20055;-42
2023/09/20 10:39:16;;;;;;;2.40;0.80;;;22.60;53.50;;;;;;4964147;28;20059;-43
2023/09/20 10:41:45;;;;;;;2.60;1.35;;;22.60;53.40;;;;;;4964455;28;20076;-42
2023/09/20 10:44:26;;;;;;;2.88;1.15;;;22.60;53.40;;;;;;4964602;28;20054;-46
2023/09/20 10:46:55;;;;;;;3.30;1.00;;;22.70;53.60;;;;;;4962744;28;20498;-45
2023/09/20 10:49:41;;;;;;;1.52;1.00;;;22.70;53.70;;;;;;4963231;28;20055;-47
2023/09/20 10:52:08;;;;;;;4.32;1.25;;;22.70;53.60;;;;;;4963531;28;20055;-49
2023/09/20 10:54:36;;;;;;;2.22;1.00;;;22.80;53.70;;;;;;4964551;28;20047;-45
2023/09/20 10:57:07;;;;;;;5.90;1.25;;;22.80;53.50;;;;;;4964765;28;20059;-43
2023/09/20 10:59:36;;;;;;;2.05;0.90;;;22.80;53.40;;;;;;4963133;28;20054;-46
2023/09/20 11:02:08;;;;;;;4.20;1.10;;;22.90;53.30;;;;;;4963531;28;20058;-45
2023/09/20 11:04:39;;;;;;;4.55;1.10;;;22.90;53.40;;;;;;4962536;28;20499;-43
2023/09/20 11:07:08;;;;;;;2.28;1.05;;;22.90;53.30;;;;;;4962706;28;20051;-42
2023/09/20 11:09:38;;;;;;;4.20;1.42;;;22.90;53.10;;;;;;4963759;28;20051;-42
2023/09/20 11:12:11;;;;;;;4.45;1.30;;;22.90;53.10;;;;;;4962059;28;20065;-43
2023/09/20 11:14:41;;;;;;;2.72;0.90;;;23.00;53.00;;;;;;4959109;28;20062;-46
2023/09/20 11:17:13;;;;;;;5.43;1.20;;;23.00;52.90;;;;;;4961384;28;20059;-45
2023/09/20 11:19:40;;;;;;;4.75;1.30;;;23.00;52.70;;;;;;4963737;28;20058;-43
2023/09/20 11:22:07;;;;;;;2.78;1.30;;;23.10;52.60;;;;;;4961052;28;20054;-42
2023/09/20 11:24:37;;;;;;;3.28;1.00;;;23.10;52.50;;;;;;4960015;28;20053;-46
2023/09/20 11:27:05;;;;;;;4.40;1.15;;;23.20;52.40;;;;;;4963014;28;20055;-42
2023/09/20 11:29:37;;;;;;;3.83;1.13;;;23.20;52.30;;;;;;4960905;28;20065;-45
2023/09/20 11:32:09;;;;;;;3.38;1.17;;;23.20;52.10;;;;;;4960658;28;20047;-43
2023/09/20 11:34:45;;;;;;;1.98;1.30;;;23.20;51.80;;;;;;4964503;28;20054;-46
2023/09/20 11:37:17;;;;;;;2.75;1.10;;;23.30;51.50;;;;;;4962401;28;20058;-43
2023/09/20 11:39:46;;;;;;;2.35;1.23;;;23.30;51.50;;;;;;4959444;28;20491;-42
2023/09/20 11:42:25;;;;;;;3.40;1.30;;;23.30;51.60;;;;;;4961666;28;20058;-47
2023/09/20 11:44:57;;;;;;;2.00;1.13;;;23.30;51.50;;;;;;4960429;28;20483;-43
2023/09/20 11:47:24;;;;;;;3.67;1.42;;;23.30;51.50;;;;;;4958849;28;20050;-42
2023/09/20 11:49:53;;;;;;;2.95;1.38;;;23.30;51.30;;;;;;4961181;28;20078;-45
2023/09/20 11:52:20;;;;;;;3.72;1.50;;;23.30;51.10;;;;;;4961803;28;20054;-42
2023/09/20 11:54:48;;;;;;;8.85;1.58;;;23.30;50.90;;;;;;4962026;28;20443;-42
2023/09/20 11:57:17;;;;;;;6.30;1.70;;;23.30;50.70;;;;;;4962614;28;20113;-41
2023/09/20 11:59:45;;;;;;;4.50;1.40;;;23.30;50.50;;;;;;4962650;28;20081;-43
2023/09/20 12:02:13;;;;;;;2.67;1.42;;;23.30;50.60;;;;;;4961539;28;20069;-42
2023/09/20 12:04:40;;;;;;;4.07;1.60;;;23.30;50.60;;;;;;4961504;28;20070;-42
2023/09/20 12:07:09;;;;;;;3.40;1.40;;;23.30;50.60;;;;;;4962641;28;20054;-42
2023/09/20 12:09:37;;;;;;;2.08;1.20;;;23.30;50.60;;;;;;4961794;28;20422;-45
2023/09/20 12:12:05;;;;;;;2.70;1.35;;;23.20;50.70;;;;;;4960704;28;20054;-42
2023/09/20 12:14:34;;;;;;;4.28;1.20;;;23.30;51.10;;;;;;4961490;28;20429;-44
2023/09/20 12:17:01;;;;;;;7.72;1.48;;;23.30;51.30;;;;;;4961880;28;20050;-42
2023/09/20 12:19:28;;;;;;;2.78;1.40;;;23.30;51.40;;;;;;4961931;28;20058;-42
2023/09/20 12:21:56;;;;;;;1.85;1.10;;;23.30;51.40;;;;;;4962591;28;20051;-43
2023/09/20 12:24:24;;;;;;;4.93;1.42;;;23.30;51.40;;;;;;4961412;28;20062;-42
2023/09/20 12:26:53;;;;;;;5.38;1.63;;;23.30;51.50;;;;;;4962064;28;20054;-41
2023/09/20 12:29:20;;;;;;;3.88;1.67;;;23.30;51.30;;;;;;4960692;28;20636;-42
2023/09/20 12:31:49;;;;;;;4.75;1.70;;;23.30;51.10;;;;;;4962294;28;20514;-42
2023/09/20 12:34:17;;;;;;;6.20;1.50;;;23.30;51.10;;;;;;4961014;28;20061;-42
2023/09/20 12:36:45;;;;;;;4.70;1.60;;;23.40;51.10;;;;;;4959505;28;20051;-43
2023/09/20 12:39:12;;;;;;;4.95;1.88;;;23.40;50.80;;;;;;4960156;28;20062;-42
2023/09/20 12:41:42;;;;;;;4.68;1.35;;;23.50;50.50;;;;;;4956884;28;20070;-44
2023/09/20 12:45:07;;;;;;;3.13;1.25;;;23.50;50.50;;;;;;4958503;28;20058;-46
2023/09/20 12:47:35;;;;;;;4.80;1.60;;;23.50;50.50;;;;;;4943453;28;20058;-45
2023/09/20 12:50:03;;;;;;;2.50;1.40;;;23.60;50.30;;;;;;4955148;28;20050;-42
2023/09/20 12:52:31;;;;;;;3.05;1.38;;;23.60;50.00;;;;;;4959739;28;20061;-45
2023/09/20 12:54:59;;;;;;;31.75;24.55;;;23.70;50.00;;;;;;4960320;28;20502;-45
2023/09/20 12:57:28;;;;;;;63.85;16.05;;;23.70;50.00;;;;;;4961232;28;20062;-45
2023/09/20 12:59:57;;;;;;;29.33;6.78;;;23.70;49.90;;;;;;4957979;28;20482;-44
2023/09/20 13:02:27;;;;;;;6.68;2.97;;;23.70;50.00;;;;;;4958627;28;20042;-49
2023/09/20 13:04:55;;;;;;;2.75;1.50;;;23.80;50.40;;;;;;4959284;28;20059;-41
2023/09/20 13:07:23;;;;;;;2.65;1.17;;;23.80;50.40;;;;;;4960227;28;20054;-44
2023/09/20 13:09:50;;;;;;;4.30;1.80;;;23.80;50.40;;;;;;4959961;28;20483;-44
2023/09/20 13:12:21;;;;;;;3.08;1.65;;;23.90;50.70;;;;;;4960116;28;20415;-43
2023/09/20 13:14:50;;;;;;;3.97;1.70;;;23.90;50.50;;;;;;4959449;28;20062;-46
2023/09/20 13:17:18;;;;;;;5.95;2.83;;;24.00;50.60;;;;;;4958751;28;20061;-41
2023/09/20 13:19:45;;;;;;;6.07;1.90;;;24.00;50.50;;;;;;4960278;28;20422;-42
2023/09/20 13:22:13;;;;;;;6.30;2.47;;;24.00;50.10;;;;;;4958303;28;20050;-44
2023/09/20 13:24:41;;;;;;;7.53;3.22;;;24.00;50.00;;;;;;4960380;28;20057;-49
2023/09/20 13:27:08;;;;;;;4.68;1.83;;;24.00;49.70;;;;;;4959879;28;20511;-41
2023/09/20 13:29:35;;;;;;;3.33;1.73;;;24.00;49.50;;;;;;4957323;28;20050;-43
2023/09/20 13:32:08;;;;;;;3.72;1.65;;;24.00;49.40;;;;;;4959098;28;20054;-48
2023/09/20 13:34:35;;;;;;;2.80;1.10;;;24.10;49.50;;;;;;4957657;28;20054;-41
2023/09/20 13:37:02;;;;;;;5.32;1.50;;;24.10;49.40;;;;;;4958633;28;20058;-46
2023/09/20 13:39:31;;;;;;;3.40;1.42;;;24.10;49.40;;;;;;4959754;28;20055;-42